Time;durP1;ratioP1;P1;durP2;ratioP2;P2;SDS_P1;SDS_P2;PMS_P1;PMS_P2;Temp;Humidity;BMP_temperature;BMP_pressure;BME280_temperature;BME280_humidity;BME280_pressure;Samples;Min_cycle;Max_cycle;Signal;HPM_P1;HPM_P2
2022/10/23 00:02:22;;;;;;;2.33;1.50;;;;;;;;;;5055481;28;20206;-81
2022/10/23 00:04:51;;;;;;;7.47;3.95;;;;;;;;;;5055487;28;20201;-80
2022/10/23 00:07:20;;;;;;;4.63;2.65;;;;;;;;;;5055259;28;20300;-80
2022/10/23 00:09:47;;;;;;;3.70;2.75;;;;;;;;;;5054821;28;20332;-81
2022/10/23 00:12:15;;;;;;;6.97;3.10;;;;;;;;;;5055562;28;20296;-81
2022/10/23 00:14:42;;;;;;;2.22;1.55;;;;;;;;;;5054642;28;20288;-81
2022/10/23 00:17:11;;;;;;;3.28;2.30;;;;;;;;;;5054759;28;20317;-81
2022/10/23 00:19:38;;;;;;;5.10;2.58;;;;;;;;;;5054762;28;20228;-81
2022/10/23 00:22:07;;;;;;;3.33;2.00;;;;;;;;;;5054416;28;20208;-81
2022/10/23 00:24:36;;;;;;;2.75;1.63;;;;;;;;;;5054773;28;20654;-80
2022/10/23 00:27:03;;;;;;;3.78;1.73;;;;;;;;;;5054771;28;20396;-81
2022/10/23 00:29:31;;;;;;;2.00;1.83;;;;;;;;;;5054025;28;20218;-81
2022/10/23 00:31:58;;;;;;;4.63;2.17;;;;;;;;;;5054525;28;20255;-81
2022/10/23 00:34:26;;;;;;;2.15;1.55;;;;;;;;;;5053772;28;20284;-81
2022/10/23 00:36:53;;;;;;;2.67;1.60;;;;;;;;;;5053370;28;20312;-81
2022/10/23 00:39:20;;;;;;;2.50;2.15;;;;;;;;;;5053192;28;20304;-81
2022/10/23 00:41:49;;;;;;;4.70;1.65;;;;;;;;;;5054165;28;20196;-81
2022/10/23 00:45:08;;;;;;;1.92;1.63;;;;;;;;;;5054017;28;20730;-81
2022/10/23 00:47:36;;;;;;;2.03;1.40;;;;;;;;;;5031476;28;20566;-80
2022/10/23 00:50:03;;;;;;;1.77;1.33;;;;;;;;;;5054112;28;20289;-80
2022/10/23 00:52:31;;;;;;;1.77;1.40;;;;;;;;;;5054608;28;20201;-80
2022/10/23 00:54:59;;;;;;;1.67;1.40;;;;;;;;;;5054074;28;20201;-81
2022/10/23 00:57:28;;;;;;;1.77;1.23;;;;;;;;;;5053975;28;20229;-82
2022/10/23 00:59:55;;;;;;;1.42;1.33;;;;;;;;;;5053095;28;20704;-81
2022/10/23 01:02:23;;;;;;;1.83;1.40;;;;;;;;;;5053256;28;20300;-82
2022/10/23 01:04:50;;;;;;;1.67;1.25;;;;;;;;;;5053416;28;20292;-81
2022/10/23 01:07:23;;;;;;;2.08;1.13;;;;;;;;;;5053322;28;20580;-81
2022/10/23 01:09:57;;;;;;;1.95;1.35;;;;;;;;;;5053131;28;20235;-81
2022/10/23 01:12:32;;;;;;;2.22;1.40;;;;;;;;;;5053775;28;20627;-81
2022/10/23 01:15:09;;;;;;;2.05;1.50;;;;;;;;;;5054087;28;20272;-80
2022/10/23 01:17:40;;;;;;;0.90;0.90;;;;;;;;;;5053418;28;20715;-81
2022/10/23 01:20:21;;;;;;;1.30;1.27;;;;;;;;;;5053510;28;20228;-81
2022/10/23 01:23:12;;;;;;;1.10;1.00;;;;;;;;;;5055303;28;20204;-82
2022/10/23 01:26:15;;;;;;;0.65;0.60;;;;;;;;;;5058447;28;20663;-82
2022/10/23 01:28:50;;;;;;;1.65;1.30;;;;;;;;;;5057571;28;20219;-80
2022/10/23 01:31:22;;;;;;;2.20;2.00;;;;;;;;;;5058090;28;20192;-80
2022/10/23 01:33:53;;;;;;;6.13;3.33;;;;;;;;;;5057713;28;20190;-80
2022/10/23 01:36:23;;;;;;;7.05;3.85;;;;;;;;;;5057729;28;20292;-79
2022/10/23 01:38:56;;;;;;;5.97;3.88;;;;;;;;;;5057725;28;20229;-80
2022/10/23 01:41:29;;;;;;;3.03;2.50;;;;;;;;;;5058024;28;20186;-80
2022/10/23 01:44:03;;;;;;;2.58;1.77;;;;;;;;;;5058446;28;20200;-80
2022/10/23 01:46:31;;;;;;;1.80;1.38;;;;;;;;;;5058262;28;20261;-79
2022/10/23 01:48:59;;;;;;;2.97;2.53;;;;;;;;;;5057353;28;20281;-80
2022/10/23 01:51:29;;;;;;;2.70;2.50;;;;;;;;;;5057767;28;20633;-80
2022/10/23 01:53:59;;;;;;;1.70;1.50;;;;;;;;;;5057782;28;20680;-80
2022/10/23 01:56:29;;;;;;;2.80;1.90;;;;;;;;;;5057187;28;20564;-81
2022/10/23 01:59:00;;;;;;;1.50;1.40;;;;;;;;;;5056517;28;20229;-82
2022/10/23 02:01:30;;;;;;;2.03;1.77;;;;;;;;;;5056949;28;20553;-81
2022/10/23 02:03:58;;;;;;;1.83;1.63;;;;;;;;;;5056799;28;20639;-81
2022/10/23 02:06:25;;;;;;;3.58;2.17;;;;;;;;;;5057020;28;20233;-81
2022/10/23 02:08:52;;;;;;;2.17;1.98;;;;;;;;;;5056008;28;20312;-80
2022/10/23 02:11:22;;;;;;;3.47;2.10;;;;;;;;;;5056562;28;20205;-81
2022/10/23 02:13:59;;;;;;;1.90;1.50;;;;;;;;;;5056886;28;20212;-80
2022/10/23 02:16:34;;;;;;;1.48;1.38;;;;;;;;;;5056479;28;20263;-81
2022/10/23 02:19:12;;;;;;;1.75;1.65;;;;;;;;;;5056596;28;20231;-80
2022/10/23 02:21:46;;;;;;;1.35;1.30;;;;;;;;;;5056522;28;20251;-80
2022/10/23 02:24:16;;;;;;;2.83;1.92;;;;;;;;;;5056921;28;20276;-81
2022/10/23 02:26:48;;;;;;;1.70;1.60;;;;;;;;;;5056884;28;20734;-81
2022/10/23 02:29:24;;;;;;;1.38;1.27;;;;;;;;;;5056915;28;20218;-81
2022/10/23 02:31:51;;;;;;;1.10;1.10;;;;;;;;;;5056490;28;20192;-81
2022/10/23 02:34:19;;;;;;;1.05;1.05;;;;;;;;;;5055390;28;20694;-81
2022/10/23 02:36:47;;;;;;;1.55;1.10;;;;;;;;;;5056226;28;20572;-81
2022/10/23 02:39:14;;;;;;;1.20;1.10;;;;;;;;;;5056309;28;20226;-81
2022/10/23 02:41:46;;;;;;;1.10;1.10;;;;;;;;;;5056541;28;20215;-80
2022/10/23 02:44:27;;;;;;;1.15;1.10;;;;;;;;;;5056750;28;20193;-79
2022/10/23 02:47:07;;;;;;;1.55;1.33;;;;;;;;;;5056036;28;20276;-80
2022/10/23 02:49:39;;;;;;;1.67;1.58;;;;;;;;;;5056430;28;20214;-81
2022/10/23 02:52:12;;;;;;;4.88;2.33;;;;;;;;;;5056843;28;20182;-81
2022/10/23 02:55:09;;;;;;;2.40;2.22;;;;;;;;;;5056360;28;20217;-81
2022/10/23 02:57:42;;;;;;;2.05;1.90;;;;;;;;;;5055856;28;20210;-80
2022/10/23 03:00:14;;;;;;;3.25;2.15;;;;;;;;;;5057955;28;20225;-81
2022/10/23 03:02:46;;;;;;;1.63;1.52;;;;;;;;;;5058041;28;20630;-79
2022/10/23 03:05:16;;;;;;;1.88;1.77;;;;;;;;;;5058102;28;20720;-79
2022/10/23 03:07:44;;;;;;;3.78;2.22;;;;;;;;;;5058258;28;20192;-80
2022/10/23 03:10:12;;;;;;;1.67;1.48;;;;;;;;;;5058283;28;20676;-81
2022/10/23 03:12:39;;;;;;;3.03;1.80;;;;;;;;;;5058003;28;20206;-81
2022/10/23 03:15:10;;;;;;;4.80;2.00;;;;;;;;;;5057917;28;20204;-80
2022/10/23 03:17:40;;;;;;;3.30;2.10;;;;;;;;;;5058150;28;20262;-80
2022/10/23 03:20:10;;;;;;;2.45;2.00;;;;;;;;;;5057733;28;20221;-82
2022/10/23 03:22:37;;;;;;;2.05;1.60;;;;;;;;;;5057581;28;20233;-80
2022/10/23 03:25:06;;;;;;;1.40;1.23;;;;;;;;;;5058047;28;20288;-80
2022/10/23 03:27:33;;;;;;;2.75;1.10;;;;;;;;;;5057683;28;20575;-79
2022/10/23 03:30:01;;;;;;;2.67;1.42;;;;;;;;;;5051365;28;20592;-80
2022/10/23 03:32:28;;;;;;;2.95;1.30;;;;;;;;;;5037405;28;20198;-80
2022/10/23 03:34:57;;;;;;;1.08;1.08;;;;;;;;;;5038588;28;20592;-81
2022/10/23 03:37:25;;;;;;;1.05;1.00;;;;;;;;;;5038287;28;20549;-80
2022/10/23 03:39:52;;;;;;;0.93;0.93;;;;;;;;;;5037787;28;20317;-81
2022/10/23 03:42:20;;;;;;;1.55;1.27;;;;;;;;;;5037219;28;20286;-81
2022/10/23 03:44:48;;;;;;;3.15;2.20;;;;;;;;;;5037471;28;20298;-79
2022/10/23 03:47:15;;;;;;;1.13;1.10;;;;;;;;;;5037578;28;20612;-80
2022/10/23 03:49:43;;;;;;;0.90;0.90;;;;;;;;;;5037228;28;20313;-80
2022/10/23 03:52:12;;;;;;;0.80;0.80;;;;;;;;;;5037796;28;20206;-80
2022/10/23 03:54:39;;;;;;;0.90;0.90;;;;;;;;;;5037689;28;20202;-80
2022/10/23 03:57:06;;;;;;;1.13;1.02;;;;;;;;;;5037488;28;20271;-81
2022/10/23 03:59:34;;;;;;;1.30;1.20;;;;;;;;;;5037713;28;20729;-80
2022/10/23 04:02:02;;;;;;;1.23;1.13;;;;;;;;;;5037728;28;20266;-81
2022/10/23 04:04:29;;;;;;;1.13;1.05;;;;;;;;;;5037941;28;20253;-79
2022/10/23 04:06:56;;;;;;;1.88;0.90;;;;;;;;;;5053235;28;20710;-80
2022/10/23 04:09:25;;;;;;;3.95;1.35;;;;;;;;;;5056994;28;20312;-81
2022/10/23 04:11:53;;;;;;;1.65;1.10;;;;;;;;;;5057223;28;20229;-81
2022/10/23 04:14:20;;;;;;;2.17;1.17;;;;;;;;;;5057056;28;20201;-81
2022/10/23 04:16:48;;;;;;;1.33;1.23;;;;;;;;;;5056804;28;20233;-80
2022/10/23 04:19:16;;;;;;;1.35;1.25;;;;;;;;;;5056576;28;20248;-81
2022/10/23 04:21:43;;;;;;;3.17;1.27;;;;;;;;;;5057370;28;20824;-81
2022/10/23 04:24:11;;;;;;;1.40;1.30;;;;;;;;;;5057394;28;20207;-81
2022/10/23 04:26:40;;;;;;;1.30;1.20;;;;;;;;;;5057504;28;20197;-80
2022/10/23 04:29:07;;;;;;;1.40;1.30;;;;;;;;;;5056325;28;20304;-80
2022/10/23 04:31:35;;;;;;;1.17;1.17;;;;;;;;;;5057568;28;20201;-80
2022/10/23 04:34:02;;;;;;;2.35;1.65;;;;;;;;;;5056896;28;20323;-80
2022/10/23 04:36:30;;;;;;;1.38;1.27;;;;;;;;;;5056585;28;20292;-80
2022/10/23 04:38:57;;;;;;;1.73;1.63;;;;;;;;;;5056237;28;20264;-80
2022/10/23 04:41:25;;;;;;;2.22;1.27;;;;;;;;;;5056317;28;20204;-81
2022/10/23 04:43:54;;;;;;;1.70;1.60;;;;;;;;;;5056408;28;20284;-81
2022/10/23 04:46:21;;;;;;;1.10;1.10;;;;;;;;;;5056352;28;20270;-81
2022/10/23 04:48:48;;;;;;;1.00;1.00;;;;;;;;;;5056915;28;20221;-79
2022/10/23 04:51:16;;;;;;;1.48;1.38;;;;;;;;;;5056604;28;20255;-80
2022/10/23 04:53:43;;;;;;;1.40;1.30;;;;;;;;;;5056926;28;20558;-80
2022/10/23 04:56:14;;;;;;;1.02;1.02;;;;;;;;;;5056261;28;20269;-78
2022/10/23 04:58:42;;;;;;;1.30;1.20;;;;;;;;;;5053753;28;20226;-80
2022/10/23 05:01:11;;;;;;;1.00;1.00;;;;;;;;;;5054947;28;20288;-79
2022/10/23 05:03:39;;;;;;;0.82;0.82;;;;;;;;;;5053911;28;20694;-80
2022/10/23 05:06:07;;;;;;;1.10;1.10;;;;;;;;;;5054009;28;20240;-81
2022/10/23 05:08:35;;;;;;;1.30;1.20;;;;;;;;;;5053742;28;20229;-81
2022/10/23 05:11:03;;;;;;;0.90;0.90;;;;;;;;;;5054164;28;20549;-82
2022/10/23 05:13:31;;;;;;;0.90;0.90;;;;;;;;;;5054238;28;20208;-81
2022/10/23 05:15:59;;;;;;;1.10;1.00;;;;;;;;;;5054185;28;20296;-81
2022/10/23 05:18:32;;;;;;;0.90;0.90;;;;;;;;;;5054183;28;20564;-81
2022/10/23 05:21:03;;;;;;;1.27;1.17;;;;;;;;;;5053769;28;20297;-81
2022/10/23 05:23:33;;;;;;;1.58;1.38;;;;;;;;;;5054217;28;20202;-80
2022/10/23 05:26:02;;;;;;;1.50;1.40;;;;;;;;;;5054305;28;20212;-81
2022/10/23 05:28:29;;;;;;;1.50;1.20;;;;;;;;;;5053467;28;20226;-80
2022/10/23 05:30:58;;;;;;;1.20;1.10;;;;;;;;;;5054003;28;20659;-79
2022/10/23 05:33:28;;;;;;;1.10;1.10;;;;;;;;;;5054227;28;20229;-79
2022/10/23 05:35:55;;;;;;;1.00;1.00;;;;;;;;;;5054526;28;20734;-80
2022/10/23 05:38:23;;;;;;;0.85;0.85;;;;;;;;;;5054104;28;20224;-80
2022/10/23 05:40:52;;;;;;;0.80;0.80;;;;;;;;;;5054188;28;20312;-80
2022/10/23 05:43:19;;;;;;;1.10;1.10;;;;;;;;;;5054461;28;20280;-80
2022/10/23 05:45:47;;;;;;;1.05;1.05;;;;;;;;;;5054816;28;20265;-80
2022/10/23 05:48:16;;;;;;;1.00;1.00;;;;;;;;;;5054529;28;20228;-79
2022/10/23 05:50:44;;;;;;;0.90;0.90;;;;;;;;;;5053969;28;20590;-79
2022/10/23 05:53:12;;;;;;;2.05;1.10;;;;;;;;;;5054383;28;20288;-80
2022/10/23 05:55:39;;;;;;;0.88;0.88;;;;;;;;;;5053907;28;20726;-80
2022/10/23 05:58:07;;;;;;;0.88;0.88;;;;;;;;;;5053466;28;20197;-80
2022/10/23 06:00:34;;;;;;;1.90;1.15;;;;;;;;;;5053047;28;20317;-81
2022/10/23 06:03:02;;;;;;;1.20;1.10;;;;;;;;;;5052338;28;20292;-81
2022/10/23 06:05:29;;;;;;;1.33;1.10;;;;;;;;;;5053340;28;20216;-81
2022/10/23 06:08:00;;;;;;;0.90;0.90;;;;;;;;;;5054130;28;20767;-82
2022/10/23 06:10:27;;;;;;;1.05;1.05;;;;;;;;;;5057632;28;20663;-81
2022/10/23 06:12:55;;;;;;;0.95;0.95;;;;;;;;;;5058163;28;20750;-81
2022/10/23 06:15:22;;;;;;;1.20;1.10;;;;;;;;;;5057669;28;20229;-83
2022/10/23 06:17:50;;;;;;;1.23;1.13;;;;;;;;;;5056840;28;20292;-83
2022/10/23 06:20:17;;;;;;;0.80;0.80;;;;;;;;;;5056414;28;20320;-81
2022/10/23 06:22:45;;;;;;;3.13;1.55;;;;;;;;;;5056950;28;20300;-82
2022/10/23 06:25:14;;;;;;;1.30;1.20;;;;;;;;;;5057220;28;20300;-83
2022/10/23 06:27:41;;;;;;;1.35;1.33;;;;;;;;;;5056757;28;20234;-81
2022/10/23 06:30:10;;;;;;;1.40;1.30;;;;;;;;;;5057027;28;20300;-82
2022/10/23 06:32:38;;;;;;;2.78;2.53;;;;;;;;;;5056877;28;20198;-83
2022/10/23 06:35:06;;;;;;;1.55;1.45;;;;;;;;;;5057620;28;20233;-84
2022/10/23 06:37:34;;;;;;;1.50;1.40;;;;;;;;;;5057377;28;20201;-82
2022/10/23 06:40:02;;;;;;;1.30;1.20;;;;;;;;;;5057697;28;20757;-81
2022/10/23 06:42:31;;;;;;;1.30;1.30;;;;;;;;;;5058428;28;20205;-80
2022/10/23 06:44:58;;;;;;;1.20;1.20;;;;;;;;;;5038488;28;20340;-80
2022/10/23 06:47:26;;;;;;;1.92;1.83;;;;;;;;;;5038627;28;20202;-79
2022/10/23 06:49:53;;;;;;;1.38;1.27;;;;;;;;;;5038030;28;20281;-81
2022/10/23 06:52:21;;;;;;;1.23;1.10;;;;;;;;;;5038152;28;20237;-81
2022/10/23 06:54:48;;;;;;;4.90;1.52;;;;;;;;;;5039429;28;20618;-80
2022/10/23 06:57:16;;;;;;;1.55;1.42;;;;;;;;;;5038128;28;20289;-78
2022/10/23 06:59:45;;;;;;;1.25;1.25;;;;;;;;;;5036590;28;20671;-81
2022/10/23 07:02:12;;;;;;;1.17;1.10;;;;;;;;;;5036876;28;20722;-80
2022/10/23 07:04:40;;;;;;;1.00;1.00;;;;;;;;;;5036711;28;20293;-80
2022/10/23 07:07:07;;;;;;;1.30;1.20;;;;;;;;;;5053956;28;20646;-80
2022/10/23 07:09:36;;;;;;;1.13;1.02;;;;;;;;;;5056862;28;20316;-82
2022/10/23 07:12:04;;;;;;;1.00;1.00;;;;;;;;;;5056531;28;20306;-81
2022/10/23 07:14:31;;;;;;;1.00;1.00;;;;;;;;;;5056989;28;20202;-83
2022/10/23 07:17:00;;;;;;;1.00;1.00;;;;;;;;;;5057167;28;20661;-83
2022/10/23 07:19:28;;;;;;;1.33;1.23;;;;;;;;;;5056403;28;20249;-84
2022/10/23 07:21:55;;;;;;;1.00;1.00;;;;;;;;;;5056425;28;20228;-84
2022/10/23 07:24:23;;;;;;;1.40;1.30;;;;;;;;;;5056700;28;20201;-83
2022/10/23 07:26:50;;;;;;;1.35;1.25;;;;;;;;;;5056173;28;20292;-82
2022/10/23 07:29:18;;;;;;;1.30;1.30;;;;;;;;;;5056390;28;20289;-82
2022/10/23 07:31:45;;;;;;;2.03;1.92;;;;;;;;;;5055835;28;20252;-82
2022/10/23 07:34:14;;;;;;;1.85;1.75;;;;;;;;;;5054984;28;20704;-83
2022/10/23 07:36:42;;;;;;;1.88;1.77;;;;;;;;;;5057125;28;20300;-82
2022/10/23 07:39:10;;;;;;;2.22;2.13;;;;;;;;;;5057044;28;20319;-82
2022/10/23 07:41:38;;;;;;;2.40;2.30;;;;;;;;;;5056936;28;20225;-81
2022/10/23 07:44:05;;;;;;;1.60;1.50;;;;;;;;;;5055588;28;20292;-81
2022/10/23 07:46:33;;;;;;;1.67;1.58;;;;;;;;;;5056383;28;20206;-81
2022/10/23 07:49:00;;;;;;;1.88;1.77;;;;;;;;;;5056880;28;20631;-81
2022/10/23 07:51:29;;;;;;;2.83;2.63;;;;;;;;;;5055513;28;20197;-81
2022/10/23 07:53:56;;;;;;;2.00;1.85;;;;;;;;;;5056340;28;20389;-82
2022/10/23 07:56:28;;;;;;;2.80;2.60;;;;;;;;;;5057293;28;20207;-81
2022/10/23 07:58:57;;;;;;;3.03;2.83;;;;;;;;;;5056957;28;20226;-82
2022/10/23 08:01:30;;;;;;;2.63;2.42;;;;;;;;;;5056755;28;20221;-81
2022/10/23 08:03:58;;;;;;;2.05;1.95;;;;;;;;;;5056610;28;20189;-81
2022/10/23 08:06:25;;;;;;;2.55;2.35;;;;;;;;;;5055895;28;20236;-81
2022/10/23 08:08:54;;;;;;;2.83;2.15;;;;;;;;;;5070714;22;20725;-79
2022/10/23 08:11:26;;;;;;;1.98;1.80;;;;;;;;;;5053171;28;20658;-77
2022/10/23 08:13:54;;;;;;;2.13;2.03;;;;;;;;;;5035886;28;20214;-80
2022/10/23 08:16:22;;;;;;;2.17;1.98;;;;;;;;;;5034542;28;20202;-79
2022/10/23 08:18:49;;;;;;;1.88;1.77;;;;;;;;;;5033450;28;20206;-79
2022/10/23 08:21:17;;;;;;;1.83;1.48;;;;;;;;;;5033957;28;20240;-80
2022/10/23 08:23:45;;;;;;;1.92;1.75;;;;;;;;;;5056579;22;20226;-83
2022/10/23 08:26:14;;;;;;;1.77;1.40;;;;;;;;;;5033405;28;20297;-83
2022/10/23 08:28:42;;;;;;;1.48;1.38;;;;;;;;;;5032578;28;20200;-83
2022/10/23 08:31:12;;;;;;;1.40;1.30;;;;;;;;;;5032115;28;20605;-83
2022/10/23 08:33:40;;;;;;;1.33;1.20;;;;;;;;;;5032551;28;20242;-81
2022/10/23 08:36:17;;;;;;;2.10;1.10;;;;;;;;;;5038801;28;20774;-82
2022/10/23 08:38:45;;;;;;;1.95;1.20;;;;;;;;;;5044129;28;20189;-84
2022/10/23 08:41:24;;;;;;;2.15;1.30;;;;;;;;;;5043024;28;20230;-84
2022/10/23 08:43:57;;;;;;;3.33;1.63;;;;;;;;;;5044794;28;20226;-84
2022/10/23 08:46:28;;;;;;;1.50;1.45;;;;;;;;;;5043900;28;20321;-84
2022/10/23 08:48:59;;;;;;;3.00;1.38;;;;;;;;;;5041911;28;20213;-83
2022/10/23 08:51:32;;;;;;;1.10;1.00;;;;;;;;;;5039314;28;20212;-83
2022/10/23 08:54:03;;;;;;;1.02;0.93;;;;;;;;;;5039467;28;20222;-82
2022/10/23 08:56:35;;;;;;;1.70;1.38;;;;;;;;;;5037207;28;20233;-83
2022/10/23 08:59:10;;;;;;;1.23;0.93;;;;;;;;;;5036712;28;20210;-83
2022/10/23 09:01:41;;;;;;;2.22;1.25;;;;;;;;;;5038110;28;20236;-85
2022/10/23 09:04:11;;;;;;;1.30;1.20;;;;;;;;;;5036778;28;20663;-83
2022/10/23 09:06:43;;;;;;;1.10;1.10;;;;;;;;;;5036587;28;20591;-82
2022/10/23 09:09:33;;;;;;;1.77;1.10;;;;;;;;;;5035816;28;20217;-83
2022/10/23 09:12:07;;;;;;;1.40;1.30;;;;;;;;;;5036199;28;20199;-84
2022/10/23 09:15:15;;;;;;;0.98;0.98;;;;;;;;;;5036576;28;20206;-82
2022/10/23 09:17:44;;;;;;;1.30;0.90;;;;;;;;;;5036893;28;20202;-82
2022/10/23 09:20:18;;;;;;;1.00;1.00;;;;;;;;;;5035800;28;20204;-83
2022/10/23 09:22:47;;;;;;;1.30;1.17;;;;;;;;;;5035526;28;20225;-83
2022/10/23 09:25:21;;;;;;;6.95;2.55;;;;;;;;;;5035604;28;20202;-83
2022/10/23 09:27:52;;;;;;;1.38;1.08;;;;;;;;;;5035156;28;20206;-82
2022/10/23 09:30:28;;;;;;;0.90;0.90;;;;;;;;;;5034935;28;20206;-84
2022/10/23 09:32:56;;;;;;;0.90;0.90;;;;;;;;;;5034160;28;20218;-83
2022/10/23 09:35:26;;;;;;;1.25;0.90;;;;;;;;;;5034783;28;20244;-82
2022/10/23 09:37:56;;;;;;;1.50;1.13;;;;;;;;;;5043916;28;20198;-83
2022/10/23 09:40:32;;;;;;;1.45;1.00;;;;;;;;;;5051593;28;20265;-81
2022/10/23 09:43:03;;;;;;;2.53;1.10;;;;;;;;;;5051168;28;20232;-80
2022/10/23 09:45:33;;;;;;;1.33;1.13;;;;;;;;;;5049462;28;20203;-83
2022/10/23 09:48:11;;;;;;;1.65;1.30;;;;;;;;;;5041515;28;20210;-81
2022/10/23 09:50:53;;;;;;;1.15;1.10;;;;;;;;;;5040145;28;20205;-83
2022/10/23 09:53:31;;;;;;;0.95;0.93;;;;;;;;;;5040926;28;20233;-82
2022/10/23 09:56:03;;;;;;;1.48;1.27;;;;;;;;;;5040308;28;20201;-83
2022/10/23 09:58:35;;;;;;;1.33;0.98;;;;;;;;;;5038520;28;20206;-82
2022/10/23 10:01:03;;;;;;;1.65;1.00;;;;;;;;;;5040812;28;20289;-84
2022/10/23 10:03:31;;;;;;;1.00;1.00;;;;;;;;;;5040870;28;20351;-84
2022/10/23 10:06:01;;;;;;;1.13;1.08;;;;;;;;;;5040554;28;20315;-84
2022/10/23 10:08:36;;;;;;;1.10;1.10;;;;;;;;;;5040233;28;20205;-84
2022/10/23 10:11:10;;;;;;;0.95;0.85;;;;;;;;;;5040993;28;20661;-84
2022/10/23 10:14:41;;;;;;;1.38;1.10;;;;;;;;;;5040521;28;20218;-84
2022/10/23 10:17:20;;;;;;;1.80;1.45;;;;;;;;;;4978271;28;20218;-83
2022/10/23 10:20:22;;;;;;;1.77;1.45;;;;;;;;;;5029213;28;20210;-82
2022/10/23 10:22:55;;;;;;;1.25;1.15;;;;;;;;;;5038797;28;20236;-84
2022/10/23 10:25:27;;;;;;;2.75;1.20;;;;;;;;;;5039055;28;20250;-84
2022/10/23 10:28:10;;;;;;;1.73;1.10;;;;;;;;;;5039046;28;20685;-84
2022/10/23 10:30:44;;;;;;;1.88;1.60;;;;;;;;;;5039304;28;20659;-84
2022/10/23 10:33:21;;;;;;;3.78;1.48;;;;;;;;;;5038924;28;20228;-82
2022/10/23 10:35:55;;;;;;;1.80;1.00;;;;;;;;;;5043566;28;20309;-83
2022/10/23 10:38:42;;;;;;;1.65;1.05;;;;;;;;;;5040944;28;20212;-83
2022/10/23 10:41:39;;;;;;;2.88;1.10;;;;;;;;;;5040518;28;20666;-83
2022/10/23 10:44:42;;;;;;;2.30;1.00;;;;;;;;;;5026390;28;20230;-82
2022/10/23 10:47:15;;;;;;;1.10;1.00;;;;;;;;;;5036571;28;20242;-84
2022/10/23 10:49:53;;;;;;;2.47;1.02;;;;;;;;;;5038637;28;20213;-83
2022/10/23 10:52:29;;;;;;;1.10;1.00;;;;;;;;;;5039145;28;20710;-83
2022/10/23 10:55:09;;;;;;;1.58;1.17;;;;;;;;;;5037533;28;20565;-84
2022/10/23 10:57:41;;;;;;;1.02;1.02;;;;;;;;;;5037462;28;20293;-84
2022/10/23 11:00:16;;;;;;;1.42;0.98;;;;;;;;;;5037587;28;20562;-84
2022/10/23 11:02:47;;;;;;;1.30;1.20;;;;;;;;;;5037532;28;20227;-84
2022/10/23 11:05:25;;;;;;;1.67;1.13;;;;;;;;;;5037669;28;20217;-84
2022/10/23 11:07:56;;;;;;;1.98;1.10;;;;;;;;;;5037149;28;20209;-84
2022/10/23 11:10:24;;;;;;;1.20;1.10;;;;;;;;;;5037128;28;20205;-85
2022/10/23 11:12:52;;;;;;;2.45;1.33;;;;;;;;;;5036126;28;20240;-84
2022/10/23 11:15:24;;;;;;;1.17;1.10;;;;;;;;;;5036048;28;20241;-84
2022/10/23 11:17:57;;;;;;;2.55;1.20;;;;;;;;;;5036246;28;20208;-83
2022/10/23 11:20:52;;;;;;;1.13;1.00;;;;;;;;;;5036015;28;20663;-85
2022/10/23 11:24:05;;;;;;;0.93;0.82;;;;;;;;;;5036239;28;20262;-84
2022/10/23 11:26:46;;;;;;;1.63;1.10;;;;;;;;;;5027967;28;20293;-84
2022/10/23 11:29:34;;;;;;;1.77;1.17;;;;;;;;;;5035724;28;20207;-85
2022/10/23 11:32:21;;;;;;;1.23;1.10;;;;;;;;;;5036172;28;20232;-83
2022/10/23 11:35:04;;;;;;;2.83;1.15;;;;;;;;;;5036368;28;20230;-84
2022/10/23 11:37:33;;;;;;;1.67;1.58;;;;;;;;;;5036032;28;20681;-85
2022/10/23 11:40:12;;;;;;;1.08;0.98;;;;;;;;;;5035842;28;20213;-84
2022/10/23 11:42:48;;;;;;;0.93;0.85;;;;;;;;;;5035757;28;20226;-83
2022/10/23 11:45:31;;;;;;;0.93;0.93;;;;;;;;;;5035266;28;20228;-84
2022/10/23 11:48:01;;;;;;;1.58;1.48;;;;;;;;;;5038239;28;20211;-84
2022/10/23 11:50:33;;;;;;;1.00;1.00;;;;;;;;;;5042397;28;20289;-84
2022/10/23 11:53:11;;;;;;;1.08;1.08;;;;;;;;;;5036821;28;20301;-84
2022/10/23 11:55:40;;;;;;;1.10;1.10;;;;;;;;;;5036896;28;20206;-84
2022/10/23 11:58:30;;;;;;;1.83;0.88;;;;;;;;;;5037206;28;20205;-85
2022/10/23 12:01:03;;;;;;;3.17;1.23;;;;;;;;;;5036967;28;20229;-84
2022/10/23 12:03:39;;;;;;;1.27;1.17;;;;;;;;;;5036745;28;20226;-84
2022/10/23 12:06:07;;;;;;;0.88;0.88;;;;;;;;;;5037060;28;20202;-84
2022/10/23 12:08:39;;;;;;;1.23;1.10;;;;;;;;;;5037149;28;20226;-84
2022/10/23 12:11:21;;;;;;;0.80;0.80;;;;;;;;;;5037421;28;20716;-84
2022/10/23 12:13:48;;;;;;;1.20;1.00;;;;;;;;;;5036535;28;20652;-83
2022/10/23 12:16:16;;;;;;;1.02;0.93;;;;;;;;;;5035904;28;20289;-84
2022/10/23 12:18:54;;;;;;;0.82;0.82;;;;;;;;;;5033718;28;20292;-84
2022/10/23 12:21:26;;;;;;;2.13;1.40;;;;;;;;;;5036070;28;20244;-84
2022/10/23 12:24:38;;;;;;;1.17;0.90;;;;;;;;;;5034518;28;20265;-84
2022/10/23 12:27:18;;;;;;;0.90;0.90;;;;;;;;;;5032805;28;20229;-83
2022/10/23 12:30:13;;;;;;;1.17;1.05;;;;;;;;;;5035503;28;20230;-82
2022/10/23 12:33:11;;;;;;;1.33;1.20;;;;;;;;;;5036701;28;20248;-82
2022/10/23 12:35:58;;;;;;;1.00;0.98;;;;;;;;;;5035608;28;20217;-83
2022/10/23 12:38:27;;;;;;;1.23;1.10;;;;;;;;;;5035406;28;20212;-82
2022/10/23 12:41:00;;;;;;;1.85;1.10;;;;;;;;;;5034919;28;20201;-82
2022/10/23 12:43:30;;;;;;;1.33;1.23;;;;;;;;;;5035416;28;20232;-83
2022/10/23 12:46:03;;;;;;;0.90;0.90;;;;;;;;;;5035214;28;20216;-84
2022/10/23 12:48:34;;;;;;;1.20;1.10;;;;;;;;;;5033876;28;20213;-82
2022/10/23 12:51:01;;;;;;;3.80;1.30;;;;;;;;;;5033923;28;20629;-85
2022/10/23 12:53:29;;;;;;;3.50;1.30;;;;;;;;;;5033399;28;20305;-82
2022/10/23 12:56:01;;;;;;;1.00;1.00;;;;;;;;;;5033109;28;20200;-83
2022/10/23 12:58:30;;;;;;;1.20;1.10;;;;;;;;;;5033320;28;20209;-83
2022/10/23 13:01:00;;;;;;;1.52;1.30;;;;;;;;;;5034018;28;20202;-83
2022/10/23 13:03:30;;;;;;;2.45;0.95;;;;;;;;;;5032769;28;20228;-83
2022/10/23 13:06:01;;;;;;;1.02;1.02;;;;;;;;;;5033640;28;20582;-83
2022/10/23 13:08:34;;;;;;;1.10;1.10;;;;;;;;;;5033447;28;20682;-83
2022/10/23 13:11:03;;;;;;;1.08;1.00;;;;;;;;;;5033874;28;20234;-83
2022/10/23 13:13:30;;;;;;;1.35;1.25;;;;;;;;;;5033591;28;20331;-83
2022/10/23 13:15:57;;;;;;;1.98;1.10;;;;;;;;;;5033542;28;20288;-83
2022/10/23 13:18:25;;;;;;;1.50;1.13;;;;;;;;;;5033445;28;20666;-84
2022/10/23 13:20:59;;;;;;;1.52;0.90;;;;;;;;;;5036035;28;20210;-82
2022/10/23 13:23:31;;;;;;;1.27;1.17;;;;;;;;;;5035752;28;20677;-83
2022/10/23 13:25:59;;;;;;;0.90;0.90;;;;;;;;;;5036114;28;20581;-83
2022/10/23 13:28:33;;;;;;;1.35;1.10;;;;;;;;;;5035860;28;20209;-83
2022/10/23 13:31:25;;;;;;;1.35;1.25;;;;;;;;;;5036245;28;20210;-83
2022/10/23 13:34:13;;;;;;;1.25;1.15;;;;;;;;;;5036121;28;20226;-83
2022/10/23 13:36:52;;;;;;;1.08;1.08;;;;;;;;;;5036010;28;20681;-82
2022/10/23 13:39:24;;;;;;;1.45;1.20;;;;;;;;;;5035815;28;20201;-82
2022/10/23 13:41:52;;;;;;;1.25;1.20;;;;;;;;;;5036002;28;20301;-83
2022/10/23 13:44:23;;;;;;;2.67;1.38;;;;;;;;;;5035342;28;20324;-82
2022/10/23 13:46:51;;;;;;;1.55;1.45;;;;;;;;;;5035806;28;20349;-83
2022/10/23 13:49:20;;;;;;;1.40;1.25;;;;;;;;;;5035170;28;20260;-84
2022/10/23 13:51:51;;;;;;;1.20;1.15;;;;;;;;;;5035654;28;20206;-82
2022/10/23 13:54:22;;;;;;;1.25;1.20;;;;;;;;;;5035493;28;20313;-83
2022/10/23 13:56:49;;;;;;;1.35;1.25;;;;;;;;;;5035460;28;20199;-82
2022/10/23 13:59:17;;;;;;;2.42;1.30;;;;;;;;;;5035361;28;20515;-84
2022/10/23 14:01:48;;;;;;;1.08;1.08;;;;;;;;;;5037428;28;20202;-82
2022/10/23 14:04:17;;;;;;;2.40;1.50;;;;;;;;;;5037669;28;20682;-82
2022/10/23 14:06:44;;;;;;;1.27;1.17;;;;;;;;;;5037037;28;20213;-84
2022/10/23 14:09:14;;;;;;;1.30;1.20;;;;;;;;;;5037175;28;20229;-84
2022/10/23 14:11:41;;;;;;;1.05;1.05;;;;;;;;;;5036894;28;20214;-84
2022/10/23 14:14:09;;;;;;;1.40;1.30;;;;;;;;;;5036801;28;20233;-85
2022/10/23 14:16:36;;;;;;;1.60;1.50;;;;;;;;;;5040129;28;20269;-85
2022/10/23 14:19:06;;;;;;;1.30;1.20;;;;;;;;;;5037586;28;20285;-84
2022/10/23 14:21:34;;;;;;;1.27;1.17;;;;;;;;;;5039400;28;20206;-84
2022/10/23 14:24:01;;;;;;;1.75;1.65;;;;;;;;;;5070666;22;20237;-80
2022/10/23 14:26:30;;;;;;;1.85;1.45;;;;;;;;;;5055157;28;20683;-80
2022/10/23 14:28:58;;;;;;;2.35;1.77;;;;;;;;;;5054335;28;20583;-80
2022/10/23 14:31:26;;;;;;;1.42;1.13;;;;;;;;;;5054735;28;20293;-81
2022/10/23 14:33:57;;;;;;;1.20;1.10;;;;;;;;;;5054668;28;20217;-81
2022/10/23 14:36:26;;;;;;;1.00;0.95;;;;;;;;;;5054744;28;20206;-80
2022/10/23 14:38:56;;;;;;;1.10;1.00;;;;;;;;;;5054342;28;20206;-80
2022/10/23 14:41:24;;;;;;;2.47;1.30;;;;;;;;;;5053995;28;20678;-80
2022/10/23 14:43:52;;;;;;;3.60;1.40;;;;;;;;;;5054739;28;20228;-80
2022/10/23 14:46:21;;;;;;;1.52;1.13;;;;;;;;;;5054886;28;20228;-80
2022/10/23 14:48:49;;;;;;;1.38;1.27;;;;;;;;;;5055070;28;20216;-80
2022/10/23 14:51:20;;;;;;;1.45;1.20;;;;;;;;;;5054135;28;20653;-81
2022/10/23 14:53:54;;;;;;;2.15;1.85;;;;;;;;;;5054154;28;20221;-79
2022/10/23 14:56:21;;;;;;;1.90;1.17;;;;;;;;;;5054542;28;20550;-79
2022/10/23 14:58:49;;;;;;;1.52;0.95;;;;;;;;;;5053872;28;20202;-80
2022/10/23 15:01:16;;;;;;;2.05;1.20;;;;;;;;;;5054456;28;20289;-80
2022/10/23 15:03:44;;;;;;;1.00;1.00;;;;;;;;;;5053814;28;20385;-80
2022/10/23 15:06:11;;;;;;;1.40;1.30;;;;;;;;;;5053662;28;20236;-80
2022/10/23 15:08:38;;;;;;;1.52;1.42;;;;;;;;;;5053700;28;20204;-80
2022/10/23 15:11:07;;;;;;;1.48;1.05;;;;;;;;;;5053707;28;20202;-80